sensor_id;sensor_type;location;lat;lon;timestamp;P1;durP1;ratioP1;P2;durP2;ratioP2
6249;SDS011;3158;52.148;11.568;2023-01-23T00:00:46;10.88;;;6.20;;
6249;SDS011;3158;52.148;11.568;2023-01-23T00:05:57;13.23;;;6.30;;
6249;SDS011;3158;52.148;11.568;2023-01-23T00:10:58;12.45;;;6.35;;
6249;SDS011;3158;52.148;11.568;2023-01-23T00:16:18;11.57;;;7.28;;
6249;SDS011;3158;52.148;11.568;2023-01-23T00:21:21;15.27;;;5.82;;
6249;SDS011;3158;52.148;11.568;2023-01-23T00:26:24;12.40;;;6.05;;
6249;SDS011;3158;52.148;11.568;2023-01-23T00:31:44;8.45;;;5.25;;
6249;SDS011;3158;52.148;11.568;2023-01-23T00:36:45;9.02;;;5.70;;
6249;SDS011;3158;52.148;11.568;2023-01-23T00:41:47;13.55;;;6.07;;
6249;SDS011;3158;52.148;11.568;2023-01-23T00:46:48;10.73;;;5.55;;
6249;SDS011;3158;52.148;11.568;2023-01-23T00:51:51;10.30;;;5.82;;
6249;SDS011;3158;52.148;11.568;2023-01-23T00:56:53;12.48;;;6.22;;
6249;SDS011;3158;52.148;11.568;2023-01-23T01:01:56;13.35;;;6.47;;
6249;SDS011;3158;52.148;11.568;2023-01-23T01:06:57;15.35;;;6.85;;
6249;SDS011;3158;52.148;11.568;2023-01-23T01:11:58;12.15;;;6.90;;
6249;SDS011;3158;52.148;11.568;2023-01-23T01:16:59;12.27;;;6.70;;
6249;SDS011;3158;52.148;11.568;2023-01-23T01:22:01;25.98;;;7.20;;
6249;SDS011;3158;52.148;11.568;2023-01-23T01:27:02;15.27;;;6.55;;
6249;SDS011;3158;52.148;11.568;2023-01-23T01:32:03;15.00;;;6.78;;
6249;SDS011;3158;52.148;11.568;2023-01-23T01:37:04;17.23;;;6.95;;
6249;SDS011;3158;52.148;11.568;2023-01-23T01:42:05;9.98;;;6.18;;
6249;SDS011;3158;52.148;11.568;2023-01-23T01:47:07;15.45;;;6.90;;
6249;SDS011;3158;52.148;11.568;2023-01-23T01:52:10;12.35;;;6.22;;
6249;SDS011;3158;52.148;11.568;2023-01-23T01:57:20;10.30;;;6.03;;
6249;SDS011;3158;52.148;11.568;2023-01-23T02:02:28;12.85;;;6.18;;
6249;SDS011;3158;52.148;11.568;2023-01-23T02:07:40;13.13;;;7.30;;
6249;SDS011;3158;52.148;11.568;2023-01-23T02:12:44;13.65;;;6.47;;
6249;SDS011;3158;52.148;11.568;2023-01-23T02:17:45;15.30;;;6.05;;
6249;SDS011;3158;52.148;11.568;2023-01-23T02:22:57;17.35;;;6.93;;
6249;SDS011;3158;52.148;11.568;2023-01-23T02:28:01;13.93;;;6.15;;
6249;SDS011;3158;52.148;11.568;2023-01-23T02:33:39;15.80;;;7.32;;
6249;SDS011;3158;52.148;11.568;2023-01-23T02:38:33;12.15;;;6.40;;
6249;SDS011;3158;52.148;11.568;2023-01-23T02:43:36;13.30;;;6.13;;
6249;SDS011;3158;52.148;11.568;2023-01-23T02:48:39;19.67;;;7.75;;
6249;SDS011;3158;52.148;11.568;2023-01-23T02:53:43;15.20;;;7.15;;
6249;SDS011;3158;52.148;11.568;2023-01-23T02:58:44;16.95;;;7.47;;
6249;SDS011;3158;52.148;11.568;2023-01-23T03:04:04;12.55;;;6.97;;
6249;SDS011;3158;52.148;11.568;2023-01-23T03:09:10;17.60;;;7.72;;
6249;SDS011;3158;52.148;11.568;2023-01-23T03:14:17;16.45;;;7.38;;
6249;SDS011;3158;52.148;11.568;2023-01-23T03:19:19;19.00;;;8.27;;
6249;SDS011;3158;52.148;11.568;2023-01-23T03:24:22;15.68;;;7.35;;
6249;SDS011;3158;52.148;11.568;2023-01-23T03:29:24;17.50;;;7.72;;
6249;SDS011;3158;52.148;11.568;2023-01-23T03:34:47;19.63;;;8.05;;
6249;SDS011;3158;52.148;11.568;2023-01-23T03:39:48;14.15;;;7.13;;
6249;SDS011;3158;52.148;11.568;2023-01-23T03:45:08;17.80;;;7.30;;
6249;SDS011;3158;52.148;11.568;2023-01-23T03:50:09;17.50;;;8.27;;
6249;SDS011;3158;52.148;11.568;2023-01-23T03:55:13;17.35;;;8.27;;
6249;SDS011;3158;52.148;11.568;2023-01-23T04:00:14;14.10;;;7.28;;
6249;SDS011;3158;52.148;11.568;2023-01-23T04:05:28;20.02;;;7.93;;
6249;SDS011;3158;52.148;11.568;2023-01-23T04:10:29;20.17;;;8.93;;
6249;SDS011;3158;52.148;11.568;2023-01-23T04:15:37;14.23;;;7.78;;
6249;SDS011;3158;52.148;11.568;2023-01-23T04:20:40;18.45;;;8.45;;
6249;SDS011;3158;52.148;11.568;2023-01-23T04:25:41;17.88;;;7.97;;
6249;SDS011;3158;52.148;11.568;2023-01-23T04:30:48;19.88;;;8.23;;
6249;SDS011;3158;52.148;11.568;2023-01-23T04:36:00;14.40;;;7.60;;
6249;SDS011;3158;52.148;11.568;2023-01-23T04:41:03;22.35;;;8.02;;
6249;SDS011;3158;52.148;11.568;2023-01-23T04:46:09;23.35;;;8.45;;
6249;SDS011;3158;52.148;11.568;2023-01-23T04:51:33;18.83;;;7.30;;
6249;SDS011;3158;52.148;11.568;2023-01-23T04:56:35;22.08;;;8.40;;
6249;SDS011;3158;52.148;11.568;2023-01-23T05:01:38;19.63;;;8.93;;
6249;SDS011;3158;52.148;11.568;2023-01-23T05:06:39;22.33;;;8.20;;
6249;SDS011;3158;52.148;11.568;2023-01-23T05:11:41;22.52;;;8.98;;
6249;SDS011;3158;52.148;11.568;2023-01-23T05:16:44;25.08;;;10.18;;
6249;SDS011;3158;52.148;11.568;2023-01-23T05:21:49;21.45;;;8.57;;
6249;SDS011;3158;52.148;11.568;2023-01-23T05:26:53;23.08;;;8.75;;
6249;SDS011;3158;52.148;11.568;2023-01-23T05:31:54;25.20;;;8.57;;
6249;SDS011;3158;52.148;11.568;2023-01-23T05:37:19;25.83;;;8.50;;
6249;SDS011;3158;52.148;11.568;2023-01-23T05:42:25;24.77;;;8.07;;
6249;SDS011;3158;52.148;11.568;2023-01-23T05:47:56;20.15;;;7.75;;
6249;SDS011;3158;52.148;11.568;2023-01-23T05:52:57;24.17;;;8.63;;
6249;SDS011;3158;52.148;11.568;2023-01-23T05:57:58;26.70;;;8.90;;
6249;SDS011;3158;52.148;11.568;2023-01-23T06:03:16;20.38;;;8.55;;
6249;SDS011;3158;52.148;11.568;2023-01-23T06:08:38;24.27;;;8.93;;
6249;SDS011;3158;52.148;11.568;2023-01-23T06:13:40;20.52;;;9.60;;
6249;SDS011;3158;52.148;11.568;2023-01-23T06:18:41;18.95;;;9.30;;
6249;SDS011;3158;52.148;11.568;2023-01-23T06:23:43;19.85;;;8.57;;
6249;SDS011;3158;52.148;11.568;2023-01-23T06:28:45;20.83;;;9.25;;
6249;SDS011;3158;52.148;11.568;2023-01-23T06:33:50;24.83;;;10.75;;
6249;SDS011;3158;52.148;11.568;2023-01-23T06:38:53;30.58;;;10.70;;
6249;SDS011;3158;52.148;11.568;2023-01-23T06:43:59;20.67;;;8.88;;
6249;SDS011;3158;52.148;11.568;2023-01-23T06:49:02;21.98;;;8.48;;
6249;SDS011;3158;52.148;11.568;2023-01-23T06:54:05;21.80;;;9.35;;
6249;SDS011;3158;52.148;11.568;2023-01-23T06:59:07;23.38;;;8.98;;
6249;SDS011;3158;52.148;11.568;2023-01-23T07:04:08;24.00;;;9.35;;
6249;SDS011;3158;52.148;11.568;2023-01-23T07:09:11;23.40;;;8.80;;
6249;SDS011;3158;52.148;11.568;2023-01-23T07:14:13;18.48;;;7.85;;
6249;SDS011;3158;52.148;11.568;2023-01-23T07:19:17;19.60;;;8.50;;
6249;SDS011;3158;52.148;11.568;2023-01-23T07:24:18;20.95;;;7.60;;
6249;SDS011;3158;52.148;11.568;2023-01-23T07:29:19;21.30;;;8.68;;
6249;SDS011;3158;52.148;11.568;2023-01-23T07:34:20;18.48;;;8.45;;
6249;SDS011;3158;52.148;11.568;2023-01-23T07:39:21;13.63;;;7.88;;
6249;SDS011;3158;52.148;11.568;2023-01-23T07:44:22;18.73;;;9.43;;
6249;SDS011;3158;52.148;11.568;2023-01-23T07:49:24;26.08;;;8.80;;
6249;SDS011;3158;52.148;11.568;2023-01-23T07:54:25;24.30;;;9.13;;
6249;SDS011;3158;52.148;11.568;2023-01-23T07:59:26;18.45;;;7.85;;
6249;SDS011;3158;52.148;11.568;2023-01-23T08:04:27;16.20;;;8.07;;
6249;SDS011;3158;52.148;11.568;2023-01-23T08:09:28;30.85;;;8.88;;
6249;SDS011;3158;52.148;11.568;2023-01-23T08:14:29;17.70;;;8.65;;
6249;SDS011;3158;52.148;11.568;2023-01-23T08:19:30;19.75;;;8.40;;
6249;SDS011;3158;52.148;11.568;2023-01-23T08:24:32;18.02;;;8.00;;
6249;SDS011;3158;52.148;11.568;2023-01-23T08:29:33;24.95;;;9.82;;
6249;SDS011;3158;52.148;11.568;2023-01-23T08:34:34;19.88;;;9.50;;
6249;SDS011;3158;52.148;11.568;2023-01-23T08:39:35;29.58;;;11.35;;
6249;SDS011;3158;52.148;11.568;2023-01-23T08:44:36;20.65;;;8.68;;
6249;SDS011;3158;52.148;11.568;2023-01-23T08:49:38;22.42;;;9.45;;
6249;SDS011;3158;52.148;11.568;2023-01-23T08:54:39;23.10;;;9.48;;
6249;SDS011;3158;52.148;11.568;2023-01-23T08:59:40;27.58;;;10.02;;
6249;SDS011;3158;52.148;11.568;2023-01-23T09:04:43;22.17;;;9.73;;
6249;SDS011;3158;52.148;11.568;2023-01-23T09:09:45;20.73;;;9.07;;
6249;SDS011;3158;52.148;11.568;2023-01-23T09:14:46;26.08;;;9.25;;
6249;SDS011;3158;52.148;11.568;2023-01-23T09:19:47;20.65;;;8.43;;
6249;SDS011;3158;52.148;11.568;2023-01-23T09:24:49;25.98;;;11.95;;
6249;SDS011;3158;52.148;11.568;2023-01-23T09:29:50;24.77;;;10.77;;
6249;SDS011;3158;52.148;11.568;2023-01-23T09:34:51;28.10;;;9.73;;
6249;SDS011;3158;52.148;11.568;2023-01-23T09:39:53;18.70;;;8.73;;
6249;SDS011;3158;52.148;11.568;2023-01-23T09:44:59;21.77;;;8.20;;
6249;SDS011;3158;52.148;11.568;2023-01-23T09:50:04;19.90;;;7.95;;
6249;SDS011;3158;52.148;11.568;2023-01-23T10:00:27;22.00;;;8.52;;
6249;SDS011;3158;52.148;11.568;2023-01-23T10:05:39;15.70;;;8.02;;
6249;SDS011;3158;52.148;11.568;2023-01-23T10:20:54;18.15;;;8.07;;
6249;SDS011;3158;52.148;11.568;2023-01-23T10:26:03;19.17;;;8.32;;
6249;SDS011;3158;52.148;11.568;2023-01-23T10:31:06;19.05;;;8.57;;
6249;SDS011;3158;52.148;11.568;2023-01-23T10:41:18;21.23;;;8.82;;
6249;SDS011;3158;52.148;11.568;2023-01-23T10:51:32;15.65;;;9.13;;
6249;SDS011;3158;52.148;11.568;2023-01-23T10:56:34;13.27;;;8.13;;
6249;SDS011;3158;52.148;11.568;2023-01-23T11:01:36;18.75;;;8.93;;
6249;SDS011;3158;52.148;11.568;2023-01-23T11:06:37;20.13;;;9.02;;
6249;SDS011;3158;52.148;11.568;2023-01-23T11:11:38;21.60;;;10.05;;
6249;SDS011;3158;52.148;11.568;2023-01-23T11:16:39;13.85;;;8.50;;
6249;SDS011;3158;52.148;11.568;2023-01-23T11:21:52;21.30;;;9.23;;
6249;SDS011;3158;52.148;11.568;2023-01-23T11:27:03;18.90;;;8.90;;
6249;SDS011;3158;52.148;11.568;2023-01-23T11:32:07;21.23;;;9.05;;
6249;SDS011;3158;52.148;11.568;2023-01-23T11:37:14;18.30;;;10.07;;
6249;SDS011;3158;52.148;11.568;2023-01-23T11:42:18;17.42;;;9.23;;
6249;SDS011;3158;52.148;11.568;2023-01-23T11:57:56;22.30;;;9.05;;
6249;SDS011;3158;52.148;11.568;2023-01-23T12:03:20;24.98;;;10.15;;
6249;SDS011;3158;52.148;11.568;2023-01-23T12:08:35;22.75;;;10.27;;
6249;SDS011;3158;52.148;11.568;2023-01-23T12:13:47;29.58;;;10.05;;
6249;SDS011;3158;52.148;11.568;2023-01-23T12:19:04;20.77;;;8.80;;
6249;SDS011;3158;52.148;11.568;2023-01-23T12:29:38;23.88;;;9.90;;
6249;SDS011;3158;52.148;11.568;2023-01-23T12:40:05;24.38;;;10.35;;
6249;SDS011;3158;52.148;11.568;2023-01-23T12:45:23;16.90;;;8.60;;
6249;SDS011;3158;52.148;11.568;2023-01-23T12:50:42;19.73;;;9.27;;
6249;SDS011;3158;52.148;11.568;2023-01-23T12:55:49;22.25;;;11.07;;
6249;SDS011;3158;52.148;11.568;2023-01-23T13:00:56;24.55;;;10.88;;
6249;SDS011;3158;52.148;11.568;2023-01-23T13:11:09;20.83;;;9.15;;
6249;SDS011;3158;52.148;11.568;2023-01-23T13:16:31;26.75;;;10.52;;
6249;SDS011;3158;52.148;11.568;2023-01-23T13:21:32;26.02;;;11.20;;
6249;SDS011;3158;52.148;11.568;2023-01-23T13:26:53;19.02;;;9.63;;
6249;SDS011;3158;52.148;11.568;2023-01-23T13:31:59;27.00;;;10.45;;
6249;SDS011;3158;52.148;11.568;2023-01-23T13:37:30;23.05;;;9.65;;
6249;SDS011;3158;52.148;11.568;2023-01-23T13:42:32;19.27;;;9.70;;
6249;SDS011;3158;52.148;11.568;2023-01-23T13:47:33;25.42;;;10.57;;
6249;SDS011;3158;52.148;11.568;2023-01-23T13:52:57;18.67;;;9.95;;
6249;SDS011;3158;52.148;11.568;2023-01-23T13:58:20;20.80;;;10.82;;
6249;SDS011;3158;52.148;11.568;2023-01-23T14:03:29;18.58;;;9.73;;
6249;SDS011;3158;52.148;11.568;2023-01-23T14:08:51;27.13;;;10.85;;
6249;SDS011;3158;52.148;11.568;2023-01-23T14:13:53;21.33;;;10.23;;
6249;SDS011;3158;52.148;11.568;2023-01-23T14:19:21;22.15;;;9.68;;
6249;SDS011;3158;52.148;11.568;2023-01-23T14:24:24;22.60;;;9.35;;
6249;SDS011;3158;52.148;11.568;2023-01-23T14:29:28;20.67;;;9.65;;
6249;SDS011;3158;52.148;11.568;2023-01-23T14:34:29;18.58;;;8.50;;
6249;SDS011;3158;52.148;11.568;2023-01-23T14:39:38;19.48;;;8.80;;
6249;SDS011;3158;52.148;11.568;2023-01-23T14:44:41;19.50;;;8.88;;
6249;SDS011;3158;52.148;11.568;2023-01-23T14:49:43;18.20;;;8.32;;
6249;SDS011;3158;52.148;11.568;2023-01-23T14:54:47;21.33;;;8.70;;
6249;SDS011;3158;52.148;11.568;2023-01-23T14:59:48;20.25;;;8.75;;
6249;SDS011;3158;52.148;11.568;2023-01-23T15:10:17;17.55;;;9.15;;
6249;SDS011;3158;52.148;11.568;2023-01-23T15:15:19;21.02;;;9.95;;
6249;SDS011;3158;52.148;11.568;2023-01-23T15:25:31;15.23;;;6.82;;
6249;SDS011;3158;52.148;11.568;2023-01-23T15:30:41;18.75;;;8.40;;
6249;SDS011;3158;52.148;11.568;2023-01-23T15:35:44;23.10;;;9.27;;
6249;SDS011;3158;52.148;11.568;2023-01-23T15:40:46;14.57;;;8.38;;
6249;SDS011;3158;52.148;11.568;2023-01-23T15:45:47;14.52;;;7.90;;
6249;SDS011;3158;52.148;11.568;2023-01-23T15:50:48;16.05;;;8.65;;
6249;SDS011;3158;52.148;11.568;2023-01-23T15:55:49;18.15;;;9.00;;
6249;SDS011;3158;52.148;11.568;2023-01-23T16:00:51;18.30;;;9.07;;
6249;SDS011;3158;52.148;11.568;2023-01-23T16:05:52;21.42;;;9.10;;
6249;SDS011;3158;52.148;11.568;2023-01-23T16:10:53;17.60;;;8.95;;
6249;SDS011;3158;52.148;11.568;2023-01-23T16:15:55;16.85;;;9.43;;
6249;SDS011;3158;52.148;11.568;2023-01-23T16:20:56;18.05;;;9.65;;
6249;SDS011;3158;52.148;11.568;2023-01-23T16:25:57;18.60;;;9.48;;
6249;SDS011;3158;52.148;11.568;2023-01-23T16:30:59;16.80;;;8.88;;
6249;SDS011;3158;52.148;11.568;2023-01-23T16:36:00;16.30;;;8.65;;
6249;SDS011;3158;52.148;11.568;2023-01-23T16:41:01;16.58;;;8.48;;
6249;SDS011;3158;52.148;11.568;2023-01-23T16:46:02;16.63;;;8.82;;
6249;SDS011;3158;52.148;11.568;2023-01-23T16:51:04;20.20;;;8.38;;
6249;SDS011;3158;52.148;11.568;2023-01-23T16:56:10;18.17;;;9.20;;
6249;SDS011;3158;52.148;11.568;2023-01-23T17:01:15;20.92;;;8.55;;
6249;SDS011;3158;52.148;11.568;2023-01-23T17:06:17;15.85;;;9.00;;
6249;SDS011;3158;52.148;11.568;2023-01-23T17:11:20;18.30;;;8.55;;
6249;SDS011;3158;52.148;11.568;2023-01-23T17:16:23;14.48;;;8.02;;
6249;SDS011;3158;52.148;11.568;2023-01-23T17:21:26;16.52;;;8.57;;
6249;SDS011;3158;52.148;11.568;2023-01-23T17:26:29;13.73;;;7.88;;
6249;SDS011;3158;52.148;11.568;2023-01-23T17:31:30;19.67;;;9.40;;
6249;SDS011;3158;52.148;11.568;2023-01-23T17:36:32;17.80;;;8.25;;
6249;SDS011;3158;52.148;11.568;2023-01-23T17:41:33;16.20;;;8.63;;
6249;SDS011;3158;52.148;11.568;2023-01-23T17:46:34;14.95;;;8.32;;
6249;SDS011;3158;52.148;11.568;2023-01-23T17:51:36;18.60;;;8.10;;
6249;SDS011;3158;52.148;11.568;2023-01-23T17:56:38;13.65;;;7.85;;
6249;SDS011;3158;52.148;11.568;2023-01-23T18:01:39;12.93;;;7.53;;
6249;SDS011;3158;52.148;11.568;2023-01-23T18:06:40;17.17;;;8.45;;
6249;SDS011;3158;52.148;11.568;2023-01-23T18:11:42;21.05;;;9.32;;
6249;SDS011;3158;52.148;11.568;2023-01-23T18:16:51;15.00;;;8.52;;
6249;SDS011;3158;52.148;11.568;2023-01-23T18:21:54;17.35;;;8.68;;
6249;SDS011;3158;52.148;11.568;2023-01-23T18:32:08;14.38;;;8.65;;
6249;SDS011;3158;52.148;11.568;2023-01-23T18:37:31;17.80;;;8.55;;
6249;SDS011;3158;52.148;11.568;2023-01-23T18:42:36;18.33;;;8.68;;
6249;SDS011;3158;52.148;11.568;2023-01-23T18:47:38;17.70;;;9.02;;
6249;SDS011;3158;52.148;11.568;2023-01-23T19:02:49;17.50;;;8.48;;
6249;SDS011;3158;52.148;11.568;2023-01-23T19:07:53;16.35;;;8.50;;
6249;SDS011;3158;52.148;11.568;2023-01-23T19:18:02;19.95;;;9.68;;
6249;SDS011;3158;52.148;11.568;2023-01-23T19:23:09;17.40;;;9.43;;
6249;SDS011;3158;52.148;11.568;2023-01-23T19:28:15;17.83;;;9.00;;
6249;SDS011;3158;52.148;11.568;2023-01-23T19:33:17;23.73;;;8.63;;
6249;SDS011;3158;52.148;11.568;2023-01-23T19:38:19;14.88;;;8.43;;
6249;SDS011;3158;52.148;11.568;2023-01-23T19:43:20;15.18;;;8.82;;
6249;SDS011;3158;52.148;11.568;2023-01-23T19:48:21;15.73;;;8.07;;
6249;SDS011;3158;52.148;11.568;2023-01-23T19:53:22;19.67;;;8.77;;
6249;SDS011;3158;52.148;11.568;2023-01-23T19:58:23;14.30;;;8.40;;
6249;SDS011;3158;52.148;11.568;2023-01-23T20:03:24;18.17;;;9.02;;
6249;SDS011;3158;52.148;11.568;2023-01-23T20:08:26;17.35;;;9.00;;
6249;SDS011;3158;52.148;11.568;2023-01-23T20:13:27;18.90;;;9.48;;
6249;SDS011;3158;52.148;11.568;2023-01-23T20:18:28;16.77;;;8.48;;
6249;SDS011;3158;52.148;11.568;2023-01-23T20:23:29;18.17;;;8.98;;
6249;SDS011;3158;52.148;11.568;2023-01-23T20:28:31;20.30;;;9.43;;
6249;SDS011;3158;52.148;11.568;2023-01-23T20:33:33;15.50;;;8.50;;
6249;SDS011;3158;52.148;11.568;2023-01-23T20:38:34;16.50;;;8.05;;
6249;SDS011;3158;52.148;11.568;2023-01-23T20:43:35;16.95;;;9.10;;
6249;SDS011;3158;52.148;11.568;2023-01-23T20:48:38;21.23;;;8.70;;
6249;SDS011;3158;52.148;11.568;2023-01-23T20:53:40;19.27;;;8.45;;
6249;SDS011;3158;52.148;11.568;2023-01-23T20:58:46;15.88;;;7.80;;
6249;SDS011;3158;52.148;11.568;2023-01-23T21:04:06;18.48;;;8.80;;
6249;SDS011;3158;52.148;11.568;2023-01-23T21:09:07;17.70;;;8.63;;
6249;SDS011;3158;52.148;11.568;2023-01-23T21:14:08;28.02;;;9.00;;
6249;SDS011;3158;52.148;11.568;2023-01-23T21:19:10;15.93;;;8.00;;
6249;SDS011;3158;52.148;11.568;2023-01-23T21:24:11;15.18;;;8.60;;
6249;SDS011;3158;52.148;11.568;2023-01-23T21:29:12;23.67;;;8.35;;
6249;SDS011;3158;52.148;11.568;2023-01-23T21:34:13;13.48;;;7.65;;
6249;SDS011;3158;52.148;11.568;2023-01-23T21:39:15;20.27;;;8.73;;
6249;SDS011;3158;52.148;11.568;2023-01-23T21:44:16;15.07;;;8.68;;
6249;SDS011;3158;52.148;11.568;2023-01-23T21:49:17;16.52;;;7.72;;
6249;SDS011;3158;52.148;11.568;2023-01-23T21:54:19;14.85;;;7.63;;
6249;SDS011;3158;52.148;11.568;2023-01-23T21:59:20;14.40;;;8.02;;
6249;SDS011;3158;52.148;11.568;2023-01-23T22:04:21;21.48;;;9.10;;
6249;SDS011;3158;52.148;11.568;2023-01-23T22:09:23;14.30;;;7.70;;
6249;SDS011;3158;52.148;11.568;2023-01-23T22:14:24;14.77;;;7.93;;
6249;SDS011;3158;52.148;11.568;2023-01-23T22:19:26;15.05;;;8.15;;
6249;SDS011;3158;52.148;11.568;2023-01-23T22:24:27;15.57;;;8.02;;
6249;SDS011;3158;52.148;11.568;2023-01-23T22:29:29;12.48;;;7.95;;
6249;SDS011;3158;52.148;11.568;2023-01-23T22:34:30;15.70;;;7.43;;
6249;SDS011;3158;52.148;11.568;2023-01-23T22:39:31;18.00;;;7.72;;
6249;SDS011;3158;52.148;11.568;2023-01-23T22:44:32;12.48;;;6.93;;
6249;SDS011;3158;52.148;11.568;2023-01-23T22:49:33;12.77;;;6.00;;
6249;SDS011;3158;52.148;11.568;2023-01-23T22:54:35;18.10;;;8.88;;
6249;SDS011;3158;52.148;11.568;2023-01-23T22:59:36;13.82;;;7.57;;
6249;SDS011;3158;52.148;11.568;2023-01-23T23:04:37;14.07;;;6.97;;
6249;SDS011;3158;52.148;11.568;2023-01-23T23:09:39;13.25;;;6.57;;
6249;SDS011;3158;52.148;11.568;2023-01-23T23:14:40;15.18;;;7.38;;
6249;SDS011;3158;52.148;11.568;2023-01-23T23:19:41;14.52;;;7.03;;
6249;SDS011;3158;52.148;11.568;2023-01-23T23:24:42;12.68;;;7.38;;
6249;SDS011;3158;52.148;11.568;2023-01-23T23:29:43;14.85;;;7.13;;
6249;SDS011;3158;52.148;11.568;2023-01-23T23:34:44;16.42;;;7.40;;
6249;SDS011;3158;52.148;11.568;2023-01-23T23:39:45;13.38;;;7.50;;
6249;SDS011;3158;52.148;11.568;2023-01-23T23:44:46;18.77;;;9.32;;
6249;SDS011;3158;52.148;11.568;2023-01-23T23:49:47;11.95;;;6.95;;
6249;SDS011;3158;52.148;11.568;2023-01-23T23:54:48;13.73;;;7.07;;
6249;SDS011;3158;52.148;11.568;2023-01-23T23:59:50;15.00;;;7.15;;
